Pagrindinis puslapis
METAR-TAF:

METAR-TAF

Oro uostai :

Latakija, Sirija

platuma: 35-32N, ilguma: 035-46E, Aukštis: 7 m

Dabartinis oras

Ataskaita buvo paskelbta 1 valandą ir 36 minutes, ne 01:00 UTC
Vėjas 6 kt iš Rytų/Pietryčių
Temperatūra 20°C
Drėgmė 83%
Slėgis 1013 hPa
Matomumas 10 km arba daugiau
Mažai debesys ne aukštis 2600 ft
Išsisklaidę debesys ne aukštis 3000 ft

METAR: OSLK 170100Z 12006KT 9999 FEW026 SCT030 20/17 Q1013

Laikas: 05:36 (02:36 UTC)

Prognozė

Ataskaita buvo paskelbta 4 valandos ir 36 minutes, ne 22:00 UTC
Prognozė galioja nuo 17 metu 00 UTC su 17 metu 24 UTC
Vėjas 10 kt iš Pietų
Matomumas: 8000 m
Mažai debesys ne aukštis 2600 ft
Išsisklaidę debesys ne aukštis 3000 ft
Su prošvaistėmis ne aukštis 10000 ft
Laikinai
nuo 17 metu 08 UTC su 17 metu 18 UTC
Vėjas 15 kt iš Vakarų/Pietvakarių
Matomumas 10 km arba daugiau
Išsisklaidę debesys ne aukštis 3000 ft

TAF: OSLK 162200Z 1700/1724 18010KT 8000 FEW026 SCT030 BKN100 TEMPO 1708/1718 24015KT 9999 SCT030

Orai ataskaitas ir orų prognozės (METAR, TAF).

turimą stotys yra geltonos ir raudonos taškus žemėlapyje.

Perkelti pele per norėdami pamatyti stoties vardą.

Tada spustelėkite, norėdami matyti oro stebėjimo ir prognozės.

Norėdami pakeisti žemėlapį: spustelėkite ant žalios mygtukų su juodo kryžiaus žemyn,; žalią mygtuką su brūkšneliu, jei norite nutolinti; arba žalių rodyklių gretimoms žemėlapius.


METAR-TAF: